Accueil
METAR-TAF:

METAR-TAF

Aéroports :

Nijnevartovsk, Russie

latitude: 60-56N, longitude: 076-29E, altitude: 54 m

Observation

Le bulletin a été fait il y a 43 minutes, à 16:30 UTC
Vent 4 kt de sud/sud-est
Température 1°C
Humidité 93%
Pression 1011 hPa
Visibilité 10 km ou plus
Ciel couvert à une hauteur de 1300 ft

METAR: USNN 061630Z 16002MPS 9999 OVC013 01/M00 Q1011 R21/0///65 NOSIG RMK QFE753

Heure: 22:13 (17:13 UTC)

Prévision

Le bulletin a été fait il y a 3 heures et 13 minutes, à 14:00 UTC
Prévision valable du 06 à 15 UTC au 07 à 15 UTC
Vent 6 kt de sud
Visibilité 10 km ou plus
Ciel couvert à une hauteur de 1100 ft
Evoluant progressivement
du 06 à 18 UTC au 06 à 19 UTC
Vent 6 kt de sud-est
Visibilité: 3100 m
brume
Temporairement
du 06 à 19 UTC au 06 à 24 UTC
Visibilité: 0500 m
à une hauteur de 200 ft
brouillard givrant

TAF: USNN 061400Z 0615/0715 17003MPS 9999 OVC011 BECMG 0618/0619 13003MPS 3100 BR TEMPO 0619/0624 0500 FZFG VV002

Observations et prévisions météorologiques de plus de 4000 aéroports (messages METAR et TAF).

Les stations disponibles sont représentées par des disques jaunes et rouges sur la carte.

Passer la souris dessus pour voir le nom de la station.

Cliquer dessus pour voir les observations et prévisions météorologiques.

Pour changer de carte: cliquez sur les boutons verts avec une croix noire pour zoomer, sur le bouton vert avec un tiret pour effectuer un zoom arrière, ou sur les flèches vertes pour les cartes adjacentes.


METAR-TAF: